Time;durP1;ratioP1;P1;durP2;ratioP2;P2;SDS_P1;SDS_P2;PMS_P1;PMS_P2;Temp;Humidity;BMP_temperature;BMP_pressure;BME280_temperature;BME280_humidity;BME280_pressure;Samples;Min_cycle;Max_cycle;Signal;HPM_P1;HPM_P2
2022/01/06 00:01:34;;;;;;;15.43;4.00;;;;;;;1.06;100.00;101364.09;4979627;28;20058;-87
2022/01/06 00:03:59;;;;;;;31.67;5.63;;;;;;;1.07;100.00;101378.06;4971420;28;20034;-87
2022/01/06 00:06:25;;;;;;;23.70;5.03;;;;;;;1.06;100.00;101384.19;4969065;28;20031;-87
2022/01/06 00:08:50;;;;;;;26.90;6.10;;;;;;;0.95;100.00;101382.44;4982667;28;20171;-86
2022/01/06 00:11:15;;;;;;;25.85;5.32;;;;;;;0.93;100.00;101380.72;4970167;28;20134;-88
2022/01/06 00:14:00;;;;;;;23.27;5.53;;;;;;;0.96;100.00;101396.44;4969342;28;20105;-87
2022/01/06 00:24:26;;;;;;;29.95;6.57;;;;;;;0.92;100.00;101390.34;4982466;28;20403;-87
2022/01/06 00:26:51;;;;;;;29.88;5.72;;;;;;;0.93;100.00;101399.06;4982103;28;20294;-87
2022/01/06 00:29:17;;;;;;;21.85;5.72;;;;;;;0.89;100.00;101400.84;4969523;28;20577;-85
2022/01/06 00:31:43;;;;;;;25.10;5.90;;;;;;;0.81;100.00;101392.09;4976371;28;20023;-86
2022/01/06 00:34:10;;;;;;;21.05;5.38;;;;;;;0.89;100.00;101406.06;4970616;28;20497;-87
2022/01/06 00:36:42;;;;;;;32.92;6.07;;;;;;;0.89;100.00;101411.31;4973233;28;20031;-86
2022/01/06 00:39:09;;;;;;;22.88;6.25;;;;;;;0.88;100.00;101404.34;4972251;28;20027;-87
2022/01/06 00:41:36;;;;;;;22.48;5.28;;;;;;;0.86;100.00;101408.69;4972719;28;20511;-87
2022/01/06 00:44:03;;;;;;;26.52;6.07;;;;;;;0.86;100.00;101406.06;4978390;28;20018;-87
2022/01/06 00:46:29;;;;;;;27.23;5.93;;;;;;;0.84;100.00;101409.59;4992577;28;20089;-87
2022/01/06 00:48:54;;;;;;;23.73;5.88;;;;;;;0.80;100.00;101411.34;4989529;28;20486;-86
2022/01/06 00:51:19;;;;;;;29.10;5.70;;;;;;;0.83;100.00;101405.19;4989795;28;20066;-86
2022/01/06 00:53:45;;;;;;;21.67;6.85;;;;;;;0.73;100.00;101399.09;4990583;28;20022;-86
2022/01/06 00:56:10;;;;;;;27.00;6.13;;;;;;;0.79;100.00;101413.94;4978052;28;20042;-86
2022/01/06 00:58:35;;;;;;;32.05;6.47;;;;;;;0.71;100.00;101398.22;4971840;28;20093;-86
2022/01/06 01:01:01;;;;;;;26.77;6.65;;;;;;;0.76;100.00;101419.22;4972508;28;20035;-86
2022/01/06 01:03:27;;;;;;;26.73;6.47;;;;;;;0.73;100.00;101426.19;4972580;28;20034;-87
2022/01/06 01:05:55;;;;;;;31.42;6.30;;;;;;;0.64;100.00;101415.72;4972403;28;20027;-87
2022/01/06 01:08:20;;;;;;;32.45;6.47;;;;;;;0.72;100.00;101428.81;4971372;28;20497;-87
2022/01/06 01:10:47;;;;;;;24.10;6.38;;;;;;;0.63;100.00;101405.25;4986402;28;20054;-87
2022/01/06 01:13:13;;;;;;;24.25;5.47;;;;;;;0.64;100.00;101423.56;4971598;28;20027;-87
2022/01/06 01:15:46;;;;;;;22.88;6.15;;;;;;;0.58;100.00;101414.84;4972469;28;20078;-87
2022/01/06 01:18:14;;;;;;;31.07;5.73;;;;;;;0.64;100.00;101426.19;4972594;28;20373;-88
2022/01/06 01:20:39;;;;;;;27.40;5.85;;;;;;;0.62;100.00;101422.69;4976797;28;20349;-88
2022/01/06 01:23:05;;;;;;;26.02;6.65;;;;;;;0.61;100.00;101428.81;4972072;28;20027;-88
2022/01/06 01:25:30;;;;;;;21.15;5.82;;;;;;;0.62;100.00;101427.06;4972352;28;20484;-88
2022/01/06 01:27:56;;;;;;;23.05;5.90;;;;;;;0.55;100.00;101422.72;4971915;28;20027;-88
2022/01/06 01:30:29;;;;;;;44.72;7.00;;;;;;;0.57;100.00;101429.69;4972052;28;20027;-88
2022/01/06 01:32:55;;;;;;;24.38;5.88;;;;;;;0.54;100.00;101416.56;4971499;28;20030;-86
2022/01/06 01:35:21;;;;;;;23.63;6.68;;;;;;;0.53;100.00;101422.69;4971564;28;20041;-86
2022/01/06 01:37:46;;;;;;;27.40;6.68;;;;;;;0.55;100.00;101422.72;4971544;28;20027;-87
2022/01/06 01:40:12;;;;;;;29.48;7.05;;;;;;;0.54;100.00;101429.69;4970684;28;20110;-87
2022/01/06 01:42:37;;;;;;;25.27;5.45;;;;;;;0.53;100.00;101437.53;4979091;28;20034;-87
2022/01/06 01:45:05;;;;;;;25.00;5.95;;;;;;;0.57;100.00;101447.16;4972336;28;20026;-87
2022/01/06 01:47:38;;;;;;;30.58;6.70;;;;;;;0.54;100.00;101447.16;4971619;28;20189;-87
2022/01/06 01:50:12;;;;;;;27.67;5.93;;;;;;;0.56;100.00;101455.91;4979844;28;20077;-87
2022/01/06 01:52:43;;;;;;;24.60;5.47;;;;;;;0.56;100.00;101459.38;4971684;28;20165;-87
2022/01/06 01:55:09;;;;;;;31.52;5.35;;;;;;;0.56;100.00;101463.75;4970971;28;20023;-86
2022/01/06 01:57:34;;;;;;;30.95;5.47;;;;;;;0.51;100.00;101461.13;4971413;28;20092;-87
2022/01/06 02:00:01;;;;;;;23.83;5.97;;;;;;;0.56;100.00;101472.47;4979062;28;20030;-87
2022/01/06 02:02:28;;;;;;;25.13;5.85;;;;;;;0.53;100.00;101480.31;4991221;28;20027;-86
2022/01/06 02:04:53;;;;;;;30.13;5.20;;;;;;;0.41;100.00;101457.63;4991034;28;20070;-86
2022/01/06 02:07:19;;;;;;;24.33;6.20;;;;;;;0.49;100.00;101482.06;4990484;28;20030;-86
2022/01/06 02:09:44;;;;;;;25.33;5.30;;;;;;;0.52;100.00;101483.81;4985958;28;20034;-87
2022/01/06 02:12:10;;;;;;;27.45;5.20;;;;;;;0.49;100.00;101476.81;4989861;28;20088;-85
2022/01/06 02:14:38;;;;;;;27.27;5.60;;;;;;;0.44;100.00;101475.09;4989683;28;20113;-87
2022/01/06 02:17:03;;;;;;;31.48;6.50;;;;;;;0.46;100.00;101484.72;4988983;28;20165;-87
2022/01/06 02:19:28;;;;;;;32.45;5.80;;;;;;;0.47;100.00;101485.56;4981773;28;20034;-87
2022/01/06 02:21:53;;;;;;;26.92;6.50;;;;;;;0.42;100.00;101477.72;4970754;28;20080;-87
2022/01/06 02:24:19;;;;;;;21.98;5.47;;;;;;;0.43;100.00;101476.84;4970828;28;20045;-86
2022/01/06 02:26:44;;;;;;;25.27;6.28;;;;;;;0.43;100.00;101479.47;4970240;28;20027;-86
2022/01/06 02:29:10;;;;;;;29.38;6.15;;;;;;;0.38;100.00;101483.81;4972509;28;20038;-86
2022/01/06 02:31:46;;;;;;;26.85;5.82;;;;;;;0.38;100.00;101485.56;4990096;28;20018;-87
2022/01/06 02:34:12;;;;;;;26.50;5.32;;;;;;;0.36;100.00;101482.94;4988524;28;20093;-87
2022/01/06 02:36:37;;;;;;;30.23;6.25;;;;;;;0.35;100.00;101478.56;4970394;28;20480;-87
2022/01/06 02:39:02;;;;;;;28.20;5.93;;;;;;;0.33;100.00;101474.19;4970597;28;20511;-87
2022/01/06 02:41:28;;;;;;;25.13;4.93;;;;;;;0.24;100.00;101478.53;4989546;28;20018;-87
2022/01/06 02:43:55;;;;;;;27.48;5.97;;;;;;;0.29;100.00;101483.78;4989863;28;20065;-86
2022/01/06 02:46:20;;;;;;;28.90;5.00;;;;;;;0.20;100.00;101470.69;4989903;28;20033;-87
2022/01/06 02:48:45;;;;;;;24.83;5.38;;;;;;;0.21;100.00;101488.16;4985718;28;20046;-87
2022/01/06 02:51:11;;;;;;;35.08;6.15;;;;;;;0.18;100.00;101472.44;4982791;28;20035;-87
2022/01/06 02:53:36;;;;;;;23.98;5.47;;;;;;;0.20;100.00;101470.69;4983836;28;20042;-87
2022/01/06 02:56:01;;;;;;;24.20;6.15;;;;;;;0.12;100.00;101464.56;4984784;28;20033;-87
2022/01/06 02:58:26;;;;;;;29.08;5.32;;;;;;;0.08;100.00;101454.94;4970396;28;20030;-87
2022/01/06 03:00:52;;;;;;;21.05;5.72;;;;;;;0.18;100.00;101483.78;4970503;28;20122;-87
2022/01/06 03:03:17;;;;;;;35.00;6.05;;;;;;;0.20;100.00;101481.16;4969968;28;20034;-87
2022/01/06 03:05:43;;;;;;;26.88;5.65;;;;;;;0.15;100.00;101482.91;4970268;28;20038;-87
2022/01/06 03:08:08;;;;;;;33.28;6.55;;;;;;;0.14;100.00;101484.66;4969994;28;20105;-87
2022/01/06 03:10:37;;;;;;;30.05;6.38;;;;;;;0.18;100.00;101498.63;4969722;28;20496;-87
2022/01/06 03:13:03;;;;;;;24.75;6.43;;;;;;;0.13;100.00;101484.66;4976620;28;20038;-87
2022/01/06 03:15:28;;;;;;;28.77;6.85;;;;;;;0.17;100.00;101496.88;4990059;28;20029;-87
2022/01/06 03:17:56;;;;;;;29.65;6.32;;;;;;;0.10;100.00;101489.88;4989236;28;20036;-87
2022/01/06 03:20:23;;;;;;;26.90;6.53;;;;;;;0.07;100.00;101490.72;4979671;28;20129;-86
2022/01/06 03:22:49;;;;;;;23.85;6.25;;;;;;;0.06;100.00;101501.22;4974861;28;20041;-88
2022/01/06 03:25:15;;;;;;;31.73;6.13;;;;;;;0.07;100.00;101508.19;4987883;28;20038;-87
2022/01/06 03:27:41;;;;;;;32.42;5.85;;;;;;;0.04;100.00;101511.66;4989564;28;20073;-87
2022/01/06 03:30:18;;;;;;;33.70;5.72;;;;;;;0.06;100.00;101511.69;4973272;28;20042;-87
2022/01/06 03:32:44;;;;;;;16.92;4.97;;;;;;;0.02;100.00;101507.31;4982765;28;20380;-87
2022/01/06 03:35:12;;;;;;;30.75;5.75;;;;;;;-0.04;100.00;101503.81;4988943;28;20033;-87
2022/01/06 03:37:39;;;;;;;25.52;4.65;;;;;;;0.03;100.00;101514.28;4988497;28;20038;-87
2022/01/06 03:40:05;;;;;;;27.60;5.43;;;;;;;0.00;100.00;101509.94;4970960;28;20246;-86
2022/01/06 03:42:32;;;;;;;29.80;6.13;;;;;;;0.06;100.00;101530.00;4969987;28;20090;-86
2022/01/06 03:44:58;;;;;;;25.08;5.72;;;;;;;0.03;100.00;101520.38;4969686;28;20027;-87
2022/01/06 03:47:23;;;;;;;20.17;5.82;;;;;;;0.04;100.00;101511.66;4967726;28;20041;-87
2022/01/06 03:49:48;;;;;;;22.48;5.70;;;;;;;0.05;100.00;101517.78;4979955;28;20045;-87
2022/01/06 03:52:14;;;;;;;22.20;4.25;;;;;;;0.04;100.00;101522.13;4972434;28;20031;-87
2022/01/06 03:54:39;;;;;;;22.95;4.90;;;;;;;0.01;100.00;101526.50;4969376;28;20050;-87
2022/01/06 03:57:04;;;;;;;24.25;4.45;;;;;;;-0.11;100.00;101504.66;4968968;28;20026;-87
2022/01/06 03:59:29;;;;;;;25.90;4.85;;;;;;;-0.08;100.00;101515.13;4968529;28;20088;-87
2022/01/06 04:01:55;;;;;;;31.23;4.60;;;;;;;-0.03;100.00;101534.34;4969975;28;20361;-87
2022/01/06 04:04:20;;;;;;;25.55;4.80;;;;;;;-0.08;100.00;101527.34;4976573;28;20372;-87
2022/01/06 04:06:45;;;;;;;19.27;4.35;;;;;;;-0.06;100.00;101533.44;4988274;28;20037;-87
2022/01/06 04:09:10;;;;;;;23.65;5.00;;;;;;;-0.12;100.00;101523.84;4977275;28;20097;-87
2022/01/06 04:11:36;;;;;;;23.92;4.38;;;;;;;-0.19;100.00;101500.25;4969011;28;20031;-87
2022/01/06 04:14:01;;;;;;;22.65;4.25;;;;;;;-0.16;100.00;101522.06;4969108;28;20255;-88
2022/01/06 04:16:28;;;;;;;20.45;4.10;;;;;;;-0.13;100.00;101526.44;4969680;28;20038;-88
2022/01/06 04:18:53;;;;;;;22.45;4.57;;;;;;;-0.14;100.00;101528.16;4972054;28;20396;-88
2022/01/06 04:21:19;;;;;;;23.52;5.28;;;;;;;-0.15;100.00;101536.91;4982026;28;20338;-88
2022/01/06 04:23:47;;;;;;;21.73;4.72;;;;;;;-0.20;100.00;101536.00;4969201;28;20059;-88
2022/01/06 04:26:13;;;;;;;22.52;3.97;;;;;;;-0.14;100.00;101541.25;4967558;28;20023;-89
2022/01/06 04:28:38;;;;;;;16.85;4.40;;;;;;;-0.12;100.00;101554.38;4969129;28;20038;-86
2022/01/06 04:31:04;;;;;;;23.65;3.90;;;;;;;-0.27;100.00;101529.00;4968564;28;20035;-86
2022/01/06 04:33:29;;;;;;;22.35;4.22;;;;;;;-0.16;100.00;101540.38;4980076;28;20030;-87
2022/01/06 04:35:54;;;;;;;22.25;4.40;;;;;;;-0.13;100.00;101543.00;4987968;28;20041;-87
2022/01/06 04:38:21;;;;;;;21.85;4.28;;;;;;;-0.08;100.00;101561.38;4982935;28;20034;-88
2022/01/06 04:40:47;;;;;;;21.30;4.53;;;;;;;-0.09;100.00;101572.66;4988375;28;20050;-87
2022/01/06 04:43:12;;;;;;;16.52;4.18;;;;;;;-0.21;100.00;101565.63;4986428;28;20027;-87
2022/01/06 04:45:37;;;;;;;18.15;5.32;;;;;;;-0.24;100.00;101568.25;4988542;28;20110;-88
2022/01/06 04:48:03;;;;;;;17.65;4.10;;;;;;;-0.35;100.00;101554.25;4985329;28;20353;-87
2022/01/06 04:50:28;;;;;;;14.90;4.88;;;;;;;-0.34;100.00;101572.53;4985461;28;20038;-87
2022/01/06 04:52:53;;;;;;;17.58;4.40;;;;;;;-0.35;100.00;101572.53;4988341;28;20069;-87
2022/01/06 04:55:19;;;;;;;16.20;4.75;;;;;;;-0.36;100.00;101576.03;4986819;28;20042;-87
2022/01/06 04:57:44;;;;;;;21.60;5.57;;;;;;;-0.38;100.00;101576.00;4988323;28;20069;-87
2022/01/06 05:00:10;;;;;;;20.45;5.40;;;;;;;-0.40;100.00;101583.00;4984540;28;20022;-88
2022/01/06 05:02:35;;;;;;;20.92;5.60;;;;;;;-0.42;100.00;101574.25;4988405;28;20031;-87
2022/01/06 05:05:00;;;;;;;18.92;4.70;;;;;;;-0.40;100.00;101585.59;4987875;28;20057;-88
2022/01/06 05:07:26;;;;;;;19.88;4.95;;;;;;;-0.43;100.00;101600.41;4985249;28;20113;-88
2022/01/06 05:09:51;;;;;;;20.80;4.80;;;;;;;-0.50;100.00;101594.28;4976352;28;20426;-88
2022/01/06 05:12:16;;;;;;;22.67;5.30;;;;;;;-0.52;100.00;101599.47;4986887;28;20464;-88
2022/01/06 05:14:42;;;;;;;20.70;5.47;;;;;;;-0.68;100.00;101570.59;4987983;28;20036;-88
2022/01/06 05:17:08;;;;;;;25.83;5.43;;;;;;;-0.64;100.00;101593.28;4987736;28;20273;-88
2022/01/06 05:19:33;;;;;;;21.63;5.03;;;;;;;-0.65;100.00;101591.53;4973364;28;20014;-88
2022/01/06 05:21:59;;;;;;;19.30;4.45;;;;;;;-0.68;100.00;101591.50;4971637;28;20057;-87
2022/01/06 05:24:25;;;;;;;17.98;4.53;;;;;;;-0.61;100.00;101604.63;4989587;28;20026;-88
2022/01/06 05:26:51;;;;;;;14.85;4.70;;;;;;;-0.58;100.00;101609.03;4991518;28;20102;-87
2022/01/06 05:29:16;;;;;;;21.02;5.05;;;;;;;-0.61;100.00;101606.38;4978611;28;20022;-87
2022/01/06 05:31:42;;;;;;;25.48;5.72;;;;;;;-0.62;100.00;101607.25;4972005;28;20050;-86
2022/01/06 05:34:07;;;;;;;21.42;5.88;;;;;;;-0.58;100.00;101611.66;4971269;28;20461;-87
2022/01/06 05:36:34;;;;;;;24.83;5.43;;;;;;;-0.64;100.00;101612.44;4972025;28;20039;-87
2022/01/06 05:39:00;;;;;;;21.50;5.93;;;;;;;-0.68;100.00;101613.28;4977511;28;20041;-87
2022/01/06 05:41:25;;;;;;;22.02;5.50;;;;;;;-0.72;100.00;101616.75;4991296;28;20026;-88
2022/01/06 05:43:51;;;;;;;25.00;5.90;;;;;;;-0.73;100.00;101622.84;4991295;28;20463;-87
2022/01/06 05:46:17;;;;;;;20.38;6.30;;;;;;;-0.76;100.00;101623.69;4991393;28;20022;-88
2022/01/06 05:48:43;;;;;;;23.27;5.85;;;;;;;-0.79;100.00;101621.06;4974324;28;20049;-88
2022/01/06 05:51:08;;;;;;;19.95;5.60;;;;;;;-0.78;100.00;101633.28;4971281;28;20030;-86
2022/01/06 05:53:33;;;;;;;22.45;6.22;;;;;;;-0.86;100.00;101616.66;4990863;28;20052;-88
2022/01/06 05:55:58;;;;;;;16.75;5.45;;;;;;;-0.82;100.00;101626.25;4989595;28;20031;-87
2022/01/06 05:58:24;;;;;;;27.75;6.63;;;;;;;-0.81;100.00;101632.38;4983816;28;20030;-88
2022/01/06 06:00:50;;;;;;;23.08;6.10;;;;;;;-0.84;100.00;101629.72;4972763;28;20042;-87
2022/01/06 06:03:15;;;;;;;20.30;5.97;;;;;;;-0.89;100.00;101637.53;4990126;28;20503;-88
2022/01/06 06:05:41;;;;;;;20.23;5.20;;;;;;;-0.92;100.00;101634.91;4990563;28;20023;-88
2022/01/06 06:08:07;;;;;;;22.08;5.70;;;;;;;-0.94;100.00;101639.22;4970491;28;20034;-87
2022/01/06 06:10:33;;;;;;;16.85;6.10;;;;;;;-0.97;100.00;101638.31;4991060;28;20015;-88
2022/01/06 06:12:58;;;;;;;17.25;6.25;;;;;;;-1.01;100.00;101645.25;4975810;28;20503;-88
2022/01/06 06:15:23;;;;;;;25.05;6.50;;;;;;;-0.98;100.00;101640.06;4971216;28;20038;-87
2022/01/06 06:17:49;;;;;;;25.67;6.30;;;;;;;-1.01;100.00;101640.03;4985127;28;20034;-86
2022/01/06 06:20:15;;;;;;;18.70;6.82;;;;;;;-0.97;100.00;101644.41;4971470;28;20163;-86
2022/01/06 06:22:40;;;;;;;18.13;6.30;;;;;;;-0.98;100.00;101647.91;4973523;28;20061;-86
2022/01/06 06:25:06;;;;;;;20.73;6.75;;;;;;;-1.09;100.00;101637.34;4969048;28;20546;-87
2022/01/06 06:27:31;;;;;;;19.17;6.32;;;;;;;-1.03;100.00;101647.84;4971634;28;20026;-87
2022/01/06 06:29:57;;;;;;;22.83;7.00;;;;;;;-1.03;100.00;101660.91;4972332;28;20049;-87
2022/01/06 06:32:22;;;;;;;21.83;7.40;;;;;;;-1.04;100.00;101667.00;4968515;28;20059;-87
2022/01/06 06:34:47;;;;;;;21.88;6.93;;;;;;;-1.04;100.00;101661.78;4970718;28;20038;-86
2022/01/06 06:37:12;;;;;;;26.10;7.65;;;;;;;-1.09;100.00;101660.84;4976707;28;20121;-88
2022/01/06 06:39:38;;;;;;;23.48;7.40;;;;;;;-1.10;100.00;101660.84;4986655;28;20392;-87
2022/01/06 06:42:03;;;;;;;37.08;8.15;;;;;;;-1.06;100.00;101660.00;4982786;28;20037;-87
2022/01/06 06:44:28;;;;;;;23.90;7.32;;;;;;;-1.06;100.00;101657.41;4970731;28;20041;-87
2022/01/06 06:46:53;;;;;;;28.63;6.93;;;;;;;-1.13;100.00;101645.13;4973795;28;20061;-87
2022/01/06 06:49:19;;;;;;;26.13;6.50;;;;;;;-0.97;100.00;101667.06;4985347;28;20498;-86
2022/01/06 06:51:44;;;;;;;26.55;7.13;;;;;;;-0.98;100.00;101673.16;4989851;28;20041;-86
2022/01/06 06:54:09;;;;;;;20.15;6.88;;;;;;;-0.96;100.00;101676.66;4989133;28;20662;-87
2022/01/06 06:56:35;;;;;;;23.17;6.03;;;;;;;-1.00;100.00;101681.00;4978514;28;20097;-87
2022/01/06 06:59:00;;;;;;;15.07;6.60;;;;;;;-1.12;100.00;101666.06;4976467;28;20034;-87
2022/01/06 07:01:25;;;;;;;25.95;7.88;;;;;;;-0.99;100.00;101689.69;4979887;28;20030;-87
2022/01/06 07:03:50;;;;;;;22.70;7.93;;;;;;;-1.00;100.00;101701.91;4974682;28;20400;-90
2022/01/06 07:06:16;;;;;;;24.25;7.60;;;;;;;-0.97;100.00;101701.03;4970395;28;20035;-86
2022/01/06 07:08:41;;;;;;;25.25;7.40;;;;;;;-1.12;100.00;101676.50;4970042;28;20027;-88
2022/01/06 07:11:06;;;;;;;20.83;7.80;;;;;;;-0.99;100.00;101708.88;4977325;28;20027;-86
2022/01/06 07:13:31;;;;;;;22.75;7.72;;;;;;;-1.01;100.00;101713.19;4984336;28;20476;-86
2022/01/06 07:15:57;;;;;;;28.10;9.30;;;;;;;-1.02;100.00;101707.09;4988642;28;20022;-86
2022/01/06 07:18:22;;;;;;;24.38;9.38;;;;;;;-1.03;100.00;101713.19;4979536;28;20041;-86
2022/01/06 07:20:47;;;;;;;28.05;9.38;;;;;;;-1.00;100.00;101717.56;4988701;28;20067;-86
2022/01/06 07:23:12;;;;;;;32.25;9.07;;;;;;;-0.99;100.00;101723.69;4986552;28;20034;-86
2022/01/06 07:25:38;;;;;;;25.92;8.52;;;;;;;-1.01;100.00;101726.25;4979546;28;20591;-86
2022/01/06 07:28:04;;;;;;;30.15;8.75;;;;;;;-1.03;100.00;101730.59;4984085;28;20035;-86
2022/01/06 07:30:31;;;;;;;19.63;8.55;;;;;;;-1.08;100.00;101733.16;4979688;28;20080;-86
2022/01/06 07:32:57;;;;;;;30.98;9.48;;;;;;;-1.14;100.00;101713.91;4987235;28;20069;-86
2022/01/06 07:35:23;;;;;;;18.60;7.45;;;;;;;-1.10;100.00;101724.41;4988792;28;20491;-86
2022/01/06 07:37:49;;;;;;;24.05;8.23;;;;;;;-1.11;100.00;101727.03;4970754;28;20038;-85
2022/01/06 07:40:15;;;;;;;25.83;8.95;;;;;;;-1.13;100.00;101737.47;4975231;28;20884;-87
2022/01/06 07:42:40;;;;;;;28.30;9.07;;;;;;;-1.04;100.00;101747.16;4976321;28;20027;-85
2022/01/06 07:45:07;;;;;;;27.95;10.73;;;;;;;-1.02;100.00;101748.03;4970641;28;20126;-86
2022/01/06 07:47:35;;;;;;;27.00;10.00;;;;;;;-1.03;100.00;101751.50;4984637;28;20057;-88
2022/01/06 07:50:00;;;;;;;26.67;10.25;;;;;;;-1.02;100.00;101743.66;4979886;28;20558;-87
2022/01/06 07:52:26;;;;;;;27.55;9.48;;;;;;;-0.98;100.00;101744.59;4988552;28;20030;-89
2022/01/06 07:54:51;;;;;;;27.00;9.88;;;;;;;-1.03;100.00;101736.69;4988121;28;20034;-86
2022/01/06 07:57:17;;;;;;;25.80;9.70;;;;;;;-1.02;100.00;101741.06;4981528;28;20476;-87
2022/01/06 07:59:42;;;;;;;33.30;11.32;;;;;;;-1.00;100.00;101743.72;4982536;28;20034;-86
2022/01/06 08:02:08;;;;;;;25.67;11.40;;;;;;;-1.07;100.00;101737.53;4984327;28;20055;-85
2022/01/06 08:04:34;;;;;;;29.60;12.30;;;;;;;-1.07;100.00;101740.13;4969545;28;20035;-85
2022/01/06 08:06:59;;;;;;;28.35;13.35;;;;;;;-0.98;100.00;101754.16;4971974;28;20077;-87
2022/01/06 08:09:24;;;;;;;33.75;12.35;;;;;;;-0.95;100.00;101749.84;4982639;28;20377;-86
2022/01/06 08:11:50;;;;;;;30.95;13.02;;;;;;;-1.09;100.00;101726.16;4981082;28;20014;-86
2022/01/06 08:14:15;;;;;;;27.92;13.40;;;;;;;-0.93;100.00;101744.63;4972934;28;20293;-86
2022/01/06 08:16:40;;;;;;;35.08;13.70;;;;;;;-0.90;100.00;101755.13;4982781;28;20035;-85
2022/01/06 08:19:05;;;;;;;30.73;14.32;;;;;;;-0.94;100.00;101742.88;4979715;28;20038;-87
2022/01/06 08:21:31;;;;;;;33.22;15.00;;;;;;;-0.89;100.00;101749.03;4984048;28;20428;-86
2022/01/06 08:23:56;;;;;;;34.17;13.80;;;;;;;-0.81;100.00;101760.44;4968627;28;20062;-85
2022/01/06 08:26:21;;;;;;;35.60;14.57;;;;;;;-0.84;100.00;101753.44;4969048;28;20093;-86
2022/01/06 08:28:46;;;;;;;32.17;14.00;;;;;;;-0.83;100.00;101749.97;4977051;28;20058;-88
2022/01/06 08:31:13;;;;;;;36.95;13.50;;;;;;;-0.79;100.00;101761.34;4981858;28;20026;-88
2022/01/06 08:33:39;;;;;;;35.40;14.68;;;;;;;-0.69;100.00;101778.88;4970614;28;20532;-86
2022/01/06 08:36:04;;;;;;;34.63;14.55;;;;;;;-0.67;100.00;101771.94;4968811;28;20156;-86
2022/01/06 08:38:30;;;;;;;30.45;12.63;;;;;;;-0.65;100.00;101770.19;4973282;28;20113;-87
2022/01/06 08:40:55;;;;;;;34.30;14.07;;;;;;;-0.60;100.00;101770.25;4989727;28;20031;-87
2022/01/06 08:43:27;;;;;;;42.08;14.90;;;;;;;-0.60;100.00;101752.81;4982067;28;20234;-87
2022/01/06 08:45:52;;;;;;;45.28;15.80;;;;;;;-0.57;100.00;101768.53;4969393;28;20058;-87
2022/01/06 08:48:17;;;;;;;42.60;17.00;;;;;;;-0.59;100.00;101765.00;4973025;28;20081;-87
2022/01/06 08:50:43;;;;;;;38.58;15.90;;;;;;;-0.53;100.00;101762.47;4988617;28;20274;-87
2022/01/06 08:53:08;;;;;;;37.88;15.32;;;;;;;-0.53;100.00;101767.69;4983962;28;20026;-86
2022/01/06 08:55:35;;;;;;;43.72;16.98;;;;;;;-0.65;100.00;101746.66;4982485;28;20050;-86
2022/01/06 08:58:00;;;;;;;43.55;17.23;;;;;;;-0.68;100.00;101741.41;4972149;28;20030;-86
2022/01/06 09:00:27;;;;;;;42.85;17.85;;;;;;;-0.57;100.00;101754.59;4981247;28;20026;-87
2022/01/06 09:02:52;;;;;;;39.05;17.80;;;;;;;-0.43;100.00;101776.50;4991881;28;20136;-87
2022/01/06 09:05:17;;;;;;;43.92;17.67;;;;;;;-0.41;100.00;101784.38;4986984;28;20532;-87
2022/01/06 09:07:43;;;;;;;43.80;17.58;;;;;;;-0.46;100.00;101766.03;4976288;28;20092;-87
2022/01/06 09:10:09;;;;;;;48.25;19.50;;;;;;;-0.35;100.00;101780.06;4970396;28;20058;-86
2022/01/06 09:12:34;;;;;;;48.30;19.88;;;;;;;-0.38;100.00;101776.53;4971988;28;20023;-86
2022/01/06 09:14:59;;;;;;;49.55;20.60;;;;;;;-0.35;100.00;101777.44;4973435;28;20134;-87
2022/01/06 09:17:25;;;;;;;52.40;21.60;;;;;;;-0.32;100.00;101779.22;4988601;28;20035;-86
2022/01/06 09:19:50;;;;;;;50.50;20.30;;;;;;;-0.26;100.00;101787.97;4978144;28;20027;-86
2022/01/06 09:22:15;;;;;;;48.08;21.10;;;;;;;-0.29;100.00;101779.25;4971590;28;20027;-86
2022/01/06 09:24:40;;;;;;;49.78;19.73;;;;;;;-0.22;100.00;101783.66;4992401;28;20029;-86
2022/01/06 09:27:06;;;;;;;48.22;19.50;;;;;;;-0.28;100.00;101770.53;4982180;28;20126;-86
2022/01/06 09:29:31;;;;;;;51.05;20.42;;;;;;;-0.09;100.00;101802.94;4972844;28;20027;-87
2022/01/06 09:31:57;;;;;;;38.45;19.65;;;;;;;-0.05;100.00;101804.72;4975615;28;20459;-86
2022/01/06 09:34:22;;;;;;;41.33;19.83;;;;;;;-0.14;100.00;101788.97;4979675;28;20065;-87
2022/01/06 09:36:47;;;;;;;53.85;20.63;;;;;;;-0.03;100.00;101796.03;4972217;28;20027;-87
2022/01/06 09:39:13;;;;;;;40.60;19.55;;;;;;;0.09;100.00;101816.22;4983464;28;20037;-87
2022/01/06 09:41:39;;;;;;;51.05;21.45;;;;;;;0.09;100.00;101808.34;4987158;28;20089;-87
2022/01/06 09:44:05;;;;;;;52.97;20.55;;;;;;;0.16;100.00;101817.13;4971405;28;20031;-87
2022/01/06 09:46:31;;;;;;;49.55;20.10;;;;;;;0.25;100.00;101819.78;4981357;28;20034;-87
2022/01/06 09:48:59;;;;;;;46.13;18.88;;;;;;;0.31;100.00;101818.97;4982302;28;20053;-87
2022/01/06 09:51:29;;;;;;;55.33;20.10;;;;;;;0.34;100.00;101822.50;4987438;28;20399;-87
2022/01/06 09:53:57;;;;;;;50.75;21.23;;;;;;;0.36;100.00;101822.50;4979473;28;20234;-88
2022/01/06 09:56:22;;;;;;;51.45;20.92;;;;;;;0.35;100.00;101811.16;4977785;28;20030;-89
2022/01/06 09:58:48;;;;;;;48.30;20.25;;;;;;;0.44;100.00;101816.44;4976304;28;20037;-87
2022/01/06 10:01:14;;;;;;;41.63;18.02;;;;;;;0.42;100.00;101809.47;4986713;28;20206;-86
2022/01/06 10:03:48;;;;;;;53.05;21.08;;;;;;;0.59;100.00;101834.00;4991297;28;20034;-87
2022/01/06 10:06:23;;;;;;;;;;;;;;;0.61;100.00;101828.75;4989657;28;20412;-87
2022/01/06 10:08:50;;;;;;;49.60;19.48;;;;;;;0.69;100.00;101829.69;4974695;28;19914;-87
2022/01/06 10:11:19;;;;;;;48.65;19.70;;;;;;;0.71;100.00;101833.19;4986746;28;20030;-87
2022/01/06 10:13:52;;;;;;;42.72;18.88;;;;;;;0.70;100.00;101831.44;4971962;28;20037;-86
2022/01/06 10:16:20;;;;;;;48.30;18.42;;;;;;;0.71;100.00;101818.38;4971735;28;20085;-87
2022/01/06 10:19:10;;;;;;;47.50;18.90;;;;;;;0.77;100.00;101814.00;4973290;28;20041;-87
2022/01/06 10:21:52;;;;;;;39.78;17.92;;;;;;;0.77;100.00;101806.16;4974050;28;20039;-88
2022/01/06 10:24:22;;;;;;;36.83;17.08;;;;;;;0.92;100.00;101832.41;4970157;28;20027;-85
2022/01/06 10:26:56;;;;;;;42.22;18.20;;;;;;;0.85;100.00;101807.94;4973056;28;20263;-87
2022/01/06 10:29:23;;;;;;;40.38;16.90;;;;;;;0.87;100.00;101802.69;4987374;28;20344;-86
2022/01/06 10:31:49;;;;;;;39.00;17.08;;;;;;;1.04;100.00;101823.72;4989969;28;20026;-88
2022/01/06 10:34:14;;;;;;;42.13;18.80;;;;;;;1.08;100.00;101821.13;4989323;28;20036;-87
2022/01/06 10:36:40;;;;;;;37.35;16.38;;;;;;;1.10;100.00;101810.66;4990396;28;20274;-87
2022/01/06 10:39:08;;;;;;;32.25;14.90;;;;;;;1.12;100.00;101817.63;4986243;28;20034;-88
2022/01/06 10:41:35;;;;;;;31.63;16.10;;;;;;;1.13;100.00;101813.25;4985424;28;20512;-87
2022/01/06 10:44:01;;;;;;;38.33;15.85;;;;;;;1.21;100.00;101820.31;4970996;28;20029;-88
2022/01/06 10:46:47;;;;;;;39.42;15.00;;;;;;;1.25;100.00;101818.56;4969285;28;20027;-87
2022/01/06 10:49:15;;;;;;;31.98;14.45;;;;;;;1.30;100.00;101814.22;4973425;28;20115;-87
2022/01/06 10:51:46;;;;;;;38.38;15.10;;;;;;;1.36;100.00;101811.59;4970290;28;20026;-88
2022/01/06 10:54:13;;;;;;;41.92;15.48;;;;;;;1.39;100.00;101809.00;4972368;28;20030;-87
2022/01/06 10:56:38;;;;;;;34.17;14.63;;;;;;;1.33;100.00;101793.22;4980035;28;20038;-87
2022/01/06 10:59:04;;;;;;;33.13;14.07;;;;;;;1.43;100.00;101802.88;4970798;28;20166;-87
2022/01/06 11:01:33;;;;;;;38.35;15.45;;;;;;;1.51;100.00;101802.91;4978021;28;20118;-88
2022/01/06 11:03:58;;;;;;;32.92;14.27;;;;;;;1.44;100.00;101786.25;4977094;28;20499;-87
2022/01/06 11:06:24;;;;;;;31.33;14.68;;;;;;;1.49;100.00;101786.25;4970160;28;20034;-88
2022/01/06 11:08:51;;;;;;;33.08;15.07;;;;;;;1.61;100.00;101795.91;4979861;28;20030;-88
2022/01/06 11:12:26;;;;;;;28.23;14.52;;;;;;;1.63;100.00;101792.44;4969668;28;20019;-87
2022/01/06 11:14:18;;;;;;;32.85;13.80;;;;;;;1.60;100.00;101778.44;4969201;28;20043;-87
2022/01/06 11:16:44;;;;;;;25.15;12.82;;;;;;;1.69;100.00;101791.53;4969270;28;20563;-87